sensor_id;sensor_type;location;lat;lon;timestamp;P1;durP1;ratioP1;P2;durP2;ratioP2
52894;SDS011;38759;53.396;6.722;2023-05-10T00:00:33;14.40;;;12.90;;
52894;SDS011;38759;53.396;6.722;2023-05-10T00:02:59;11.90;;;8.52;;
52894;SDS011;38759;53.396;6.722;2023-05-10T00:05:25;15.15;;;13.60;;
52894;SDS011;38759;53.396;6.722;2023-05-10T00:07:50;13.40;;;12.00;;
52894;SDS011;38759;53.396;6.722;2023-05-10T00:10:16;13.70;;;12.30;;
52894;SDS011;38759;53.396;6.722;2023-05-10T00:12:41;13.45;;;12.05;;
52894;SDS011;38759;53.396;6.722;2023-05-10T00:15:07;11.98;;;8.18;;
52894;SDS011;38759;53.396;6.722;2023-05-10T00:17:34;14.55;;;13.05;;
52894;SDS011;38759;53.396;6.722;2023-05-10T00:19:59;14.52;;;13.10;;
52894;SDS011;38759;53.396;6.722;2023-05-10T00:22:25;10.68;;;8.73;;
52894;SDS011;38759;53.396;6.722;2023-05-10T00:24:51;16.23;;;10.18;;
52894;SDS011;38759;53.396;6.722;2023-05-10T00:27:16;14.48;;;13.02;;
52894;SDS011;38759;53.396;6.722;2023-05-10T00:29:42;13.68;;;9.65;;
52894;SDS011;38759;53.396;6.722;2023-05-10T00:32:08;14.00;;;10.10;;
52894;SDS011;38759;53.396;6.722;2023-05-10T00:34:33;17.20;;;15.40;;
52894;SDS011;38759;53.396;6.722;2023-05-10T00:36:59;13.02;;;10.10;;
52894;SDS011;38759;53.396;6.722;2023-05-10T00:39:25;15.27;;;13.80;;
52894;SDS011;38759;53.396;6.722;2023-05-10T00:41:51;13.57;;;9.43;;
52894;SDS011;38759;53.396;6.722;2023-05-10T00:44:17;14.90;;;12.95;;
52894;SDS011;38759;53.396;6.722;2023-05-10T00:46:43;17.85;;;15.95;;
52894;SDS011;38759;53.396;6.722;2023-05-10T00:49:09;16.05;;;12.30;;
52894;SDS011;38759;53.396;6.722;2023-05-10T00:51:36;12.13;;;9.32;;
52894;SDS011;38759;53.396;6.722;2023-05-10T00:54:02;14.10;;;10.43;;
52894;SDS011;38759;53.396;6.722;2023-05-10T00:56:28;14.95;;;13.35;;
52894;SDS011;38759;53.396;6.722;2023-05-10T00:58:55;11.25;;;8.52;;
52894;SDS011;38759;53.396;6.722;2023-05-10T01:01:21;12.52;;;9.02;;
52894;SDS011;38759;53.396;6.722;2023-05-10T01:03:47;14.32;;;12.65;;
52894;SDS011;38759;53.396;6.722;2023-05-10T01:06:13;11.55;;;7.28;;
52894;SDS011;38759;53.396;6.722;2023-05-10T01:08:39;11.50;;;7.47;;
52894;SDS011;38759;53.396;6.722;2023-05-10T01:11:05;10.75;;;7.45;;
52894;SDS011;38759;53.396;6.722;2023-05-10T01:16:04;14.38;;;8.68;;
52894;SDS011;38759;53.396;6.722;2023-05-10T01:18:32;18.75;;;14.93;;
52894;SDS011;38759;53.396;6.722;2023-05-10T01:32:17;15.90;;;11.68;;
52894;SDS011;38759;53.396;6.722;2023-05-10T01:37:57;14.23;;;8.90;;
52894;SDS011;38759;53.396;6.722;2023-05-10T01:40:35;17.67;;;14.38;;
52894;SDS011;38759;53.396;6.722;2023-05-10T01:43:15;13.35;;;8.60;;
52894;SDS011;38759;53.396;6.722;2023-05-10T01:45:47;11.25;;;7.82;;
52894;SDS011;38759;53.396;6.722;2023-05-10T01:48:29;13.82;;;12.43;;
52894;SDS011;38759;53.396;6.722;2023-05-10T01:50:56;10.40;;;7.45;;
52894;SDS011;38759;53.396;6.722;2023-05-10T01:53:23;13.00;;;10.35;;
52894;SDS011;38759;53.396;6.722;2023-05-10T01:55:49;10.95;;;7.60;;
52894;SDS011;38759;53.396;6.722;2023-05-10T01:58:50;9.95;;;7.53;;
52894;SDS011;38759;53.396;6.722;2023-05-10T02:01:11;11.65;;;9.77;;
52894;SDS011;38759;53.396;6.722;2023-05-10T02:03:38;10.85;;;7.32;;
52894;SDS011;38759;53.396;6.722;2023-05-10T02:06:07;10.43;;;8.38;;
52894;SDS011;38759;53.396;6.722;2023-05-10T02:08:35;11.18;;;6.45;;
52894;SDS011;38759;53.396;6.722;2023-05-10T02:11:02;9.55;;;7.82;;
52894;SDS011;38759;53.396;6.722;2023-05-10T02:13:30;11.93;;;10.43;;
52894;SDS011;38759;53.396;6.722;2023-05-10T02:15:57;10.65;;;7.40;;
52894;SDS011;38759;53.396;6.722;2023-05-10T02:18:26;10.75;;;9.30;;
52894;SDS011;38759;53.396;6.722;2023-05-10T02:20:52;9.63;;;7.35;;
52894;SDS011;38759;53.396;6.722;2023-05-10T02:23:20;10.80;;;6.78;;
52894;SDS011;38759;53.396;6.722;2023-05-10T02:25:46;9.70;;;6.78;;
52894;SDS011;38759;53.396;6.722;2023-05-10T02:28:14;13.85;;;11.70;;
52894;SDS011;38759;53.396;6.722;2023-05-10T02:30:41;12.30;;;9.38;;
52894;SDS011;38759;53.396;6.722;2023-05-10T02:33:07;10.93;;;7.68;;
52894;SDS011;38759;53.396;6.722;2023-05-10T02:35:34;10.13;;;7.45;;
52894;SDS011;38759;53.396;6.722;2023-05-10T02:38:01;12.20;;;8.88;;
52894;SDS011;38759;53.396;6.722;2023-05-10T02:40:27;11.75;;;8.43;;
52894;SDS011;38759;53.396;6.722;2023-05-10T02:42:54;12.70;;;7.95;;
52894;SDS011;38759;53.396;6.722;2023-05-10T02:45:23;12.45;;;8.43;;
52894;SDS011;38759;53.396;6.722;2023-05-10T02:47:53;12.98;;;9.10;;
52894;SDS011;38759;53.396;6.722;2023-05-10T02:50:19;11.73;;;8.18;;
52894;SDS011;38759;53.396;6.722;2023-05-10T02:52:47;11.50;;;7.80;;
52894;SDS011;38759;53.396;6.722;2023-05-10T02:55:16;11.38;;;8.30;;
52894;SDS011;38759;53.396;6.722;2023-05-10T02:57:48;10.57;;;8.25;;
52894;SDS011;38759;53.396;6.722;2023-05-10T03:00:19;11.18;;;8.00;;
52894;SDS011;38759;53.396;6.722;2023-05-10T03:02:45;12.10;;;8.20;;
52894;SDS011;38759;53.396;6.722;2023-05-10T03:05:11;15.35;;;11.48;;
52894;SDS011;38759;53.396;6.722;2023-05-10T03:07:37;13.80;;;12.25;;
52894;SDS011;38759;53.396;6.722;2023-05-10T03:10:03;13.07;;;10.57;;
52894;SDS011;38759;53.396;6.722;2023-05-10T03:15:37;11.45;;;8.60;;
52894;SDS011;38759;53.396;6.722;2023-05-10T03:18:10;12.23;;;10.73;;
52894;SDS011;38759;53.396;6.722;2023-05-10T03:20:56;11.82;;;8.05;;
52894;SDS011;38759;53.396;6.722;2023-05-10T03:23:27;15.25;;;10.52;;
52894;SDS011;38759;53.396;6.722;2023-05-10T03:25:54;10.48;;;8.18;;
52894;SDS011;38759;53.396;6.722;2023-05-10T03:28:21;14.05;;;12.65;;
52894;SDS011;38759;53.396;6.722;2023-05-10T03:30:49;10.43;;;7.90;;
52894;SDS011;38759;53.396;6.722;2023-05-10T03:33:17;12.90;;;8.30;;
52894;SDS011;38759;53.396;6.722;2023-05-10T03:35:43;13.60;;;12.10;;
52894;SDS011;38759;53.396;6.722;2023-05-10T03:38:10;11.88;;;8.10;;
52894;SDS011;38759;53.396;6.722;2023-05-10T03:40:36;13.65;;;9.13;;
52894;SDS011;38759;53.396;6.722;2023-05-10T03:43:05;16.65;;;11.98;;
52894;SDS011;38759;53.396;6.722;2023-05-10T03:45:31;15.57;;;10.55;;
52894;SDS011;38759;53.396;6.722;2023-05-10T03:47:57;13.45;;;8.60;;
52894;SDS011;38759;53.396;6.722;2023-05-10T03:50:23;14.57;;;8.18;;
52894;SDS011;38759;53.396;6.722;2023-05-10T03:52:49;17.00;;;9.63;;
52894;SDS011;38759;53.396;6.722;2023-05-10T03:55:15;24.17;;;15.95;;
52894;SDS011;38759;53.396;6.722;2023-05-10T03:57:41;18.42;;;9.55;;
52894;SDS011;38759;53.396;6.722;2023-05-10T04:00:07;22.00;;;14.02;;
52894;SDS011;38759;53.396;6.722;2023-05-10T04:02:33;19.13;;;11.23;;
52894;SDS011;38759;53.396;6.722;2023-05-10T04:04:59;21.58;;;13.90;;
52894;SDS011;38759;53.396;6.722;2023-05-10T04:07:25;23.25;;;15.15;;
52894;SDS011;38759;53.396;6.722;2023-05-10T04:09:51;19.75;;;10.85;;
52894;SDS011;38759;53.396;6.722;2023-05-10T04:12:17;18.05;;;10.57;;
52894;SDS011;38759;53.396;6.722;2023-05-10T04:14:43;19.77;;;11.25;;
52894;SDS011;38759;53.396;6.722;2023-05-10T04:17:08;18.75;;;10.70;;
52894;SDS011;38759;53.396;6.722;2023-05-10T04:19:35;18.65;;;11.32;;
52894;SDS011;38759;53.396;6.722;2023-05-10T04:22:02;21.75;;;12.02;;
52894;SDS011;38759;53.396;6.722;2023-05-10T04:24:27;25.15;;;11.20;;
52894;SDS011;38759;53.396;6.722;2023-05-10T04:26:53;17.70;;;10.88;;
52894;SDS011;38759;53.396;6.722;2023-05-10T04:29:20;15.85;;;10.35;;
52894;SDS011;38759;53.396;6.722;2023-05-10T04:31:45;20.75;;;10.82;;
52894;SDS011;38759;53.396;6.722;2023-05-10T04:34:11;21.85;;;10.35;;
52894;SDS011;38759;53.396;6.722;2023-05-10T04:36:37;15.90;;;9.65;;
52894;SDS011;38759;53.396;6.722;2023-05-10T04:39:03;22.80;;;13.45;;
52894;SDS011;38759;53.396;6.722;2023-05-10T04:41:29;15.00;;;8.75;;
52894;SDS011;38759;53.396;6.722;2023-05-10T04:43:55;19.90;;;11.20;;
52894;SDS011;38759;53.396;6.722;2023-05-10T04:46:21;14.75;;;8.57;;
52894;SDS011;38759;53.396;6.722;2023-05-10T04:48:47;16.20;;;10.02;;
52894;SDS011;38759;53.396;6.722;2023-05-10T04:51:13;16.27;;;9.73;;
52894;SDS011;38759;53.396;6.722;2023-05-10T04:53:38;25.80;;;15.85;;
52894;SDS011;38759;53.396;6.722;2023-05-10T04:56:04;26.38;;;10.73;;
52894;SDS011;38759;53.396;6.722;2023-05-10T04:58:30;16.95;;;10.10;;
52894;SDS011;38759;53.396;6.722;2023-05-10T05:00:56;15.75;;;9.85;;
52894;SDS011;38759;53.396;6.722;2023-05-10T05:03:22;14.65;;;9.18;;
52894;SDS011;38759;53.396;6.722;2023-05-10T05:05:47;17.75;;;8.90;;
52894;SDS011;38759;53.396;6.722;2023-05-10T05:08:13;24.00;;;15.48;;
52894;SDS011;38759;53.396;6.722;2023-05-10T05:10:39;17.15;;;8.55;;
52894;SDS011;38759;53.396;6.722;2023-05-10T05:13:04;13.77;;;8.40;;
52894;SDS011;38759;53.396;6.722;2023-05-10T05:15:30;17.00;;;10.27;;
52894;SDS011;38759;53.396;6.722;2023-05-10T05:17:56;15.07;;;8.60;;
52894;SDS011;38759;53.396;6.722;2023-05-10T05:20:22;14.93;;;12.15;;
52894;SDS011;38759;53.396;6.722;2023-05-10T05:22:47;13.45;;;8.70;;
52894;SDS011;38759;53.396;6.722;2023-05-10T05:25:13;11.68;;;7.40;;
52894;SDS011;38759;53.396;6.722;2023-05-10T05:27:40;8.25;;;6.07;;
52894;SDS011;38759;53.396;6.722;2023-05-10T05:30:06;15.73;;;9.77;;
52894;SDS011;38759;53.396;6.722;2023-05-10T05:32:32;10.90;;;6.55;;
52894;SDS011;38759;53.396;6.722;2023-05-10T05:34:58;11.05;;;6.68;;
52894;SDS011;38759;53.396;6.722;2023-05-10T05:37:23;8.68;;;6.22;;
52894;SDS011;38759;53.396;6.722;2023-05-10T05:39:49;7.85;;;5.65;;
52894;SDS011;38759;53.396;6.722;2023-05-10T05:42:15;8.80;;;5.85;;
52894;SDS011;38759;53.396;6.722;2023-05-10T05:44:42;7.88;;;6.60;;
52894;SDS011;38759;53.396;6.722;2023-05-10T05:47:08;2.40;;;2.20;;
52894;SDS011;38759;53.396;6.722;2023-05-10T05:49:34;1.90;;;1.80;;
52894;SDS011;38759;53.396;6.722;2023-05-10T05:52:00;1.52;;;1.42;;
52894;SDS011;38759;53.396;6.722;2023-05-10T05:54:27;0.45;;;0.45;;
52894;SDS011;38759;53.396;6.722;2023-05-10T05:56:54;1.55;;;0.70;;
52894;SDS011;38759;53.396;6.722;2023-05-10T05:59:20;0.60;;;0.60;;
52894;SDS011;38759;53.396;6.722;2023-05-10T06:01:46;0.50;;;0.50;;
52894;SDS011;38759;53.396;6.722;2023-05-10T06:04:12;0.98;;;0.90;;
52894;SDS011;38759;53.396;6.722;2023-05-10T06:06:38;1.05;;;1.00;;
52894;SDS011;38759;53.396;6.722;2023-05-10T06:09:03;1.30;;;1.20;;
52894;SDS011;38759;53.396;6.722;2023-05-10T06:11:29;1.70;;;1.60;;
52894;SDS011;38759;53.396;6.722;2023-05-10T06:13:57;2.25;;;1.55;;
52894;SDS011;38759;53.396;6.722;2023-05-10T06:16:23;2.22;;;1.92;;
52894;SDS011;38759;53.396;6.722;2023-05-10T06:18:49;2.03;;;1.70;;
52894;SDS011;38759;53.396;6.722;2023-05-10T06:21:14;2.17;;;1.92;;
52894;SDS011;38759;53.396;6.722;2023-05-10T06:23:41;3.33;;;2.83;;
52894;SDS011;38759;53.396;6.722;2023-05-10T06:26:07;3.03;;;2.38;;
52894;SDS011;38759;53.396;6.722;2023-05-10T06:28:32;4.00;;;3.10;;
52894;SDS011;38759;53.396;6.722;2023-05-10T06:30:58;5.32;;;3.10;;
52894;SDS011;38759;53.396;6.722;2023-05-10T06:33:25;7.15;;;3.42;;
52894;SDS011;38759;53.396;6.722;2023-05-10T06:35:50;7.93;;;3.88;;
52894;SDS011;38759;53.396;6.722;2023-05-10T06:38:16;10.93;;;3.15;;
52894;SDS011;38759;53.396;6.722;2023-05-10T06:40:42;9.07;;;3.47;;
52894;SDS011;38759;53.396;6.722;2023-05-10T06:43:08;13.50;;;4.10;;
52894;SDS011;38759;53.396;6.722;2023-05-10T06:45:34;9.57;;;3.25;;
52894;SDS011;38759;53.396;6.722;2023-05-10T06:48:00;9.95;;;3.85;;
52894;SDS011;38759;53.396;6.722;2023-05-10T06:50:26;10.00;;;3.00;;
52894;SDS011;38759;53.396;6.722;2023-05-10T06:52:51;5.35;;;2.67;;
52894;SDS011;38759;53.396;6.722;2023-05-10T06:55:17;8.55;;;3.25;;
52894;SDS011;38759;53.396;6.722;2023-05-10T06:57:43;6.32;;;3.60;;
52894;SDS011;38759;53.396;6.722;2023-05-10T07:00:08;6.28;;;4.57;;
52894;SDS011;38759;53.396;6.722;2023-05-10T07:02:35;4.45;;;3.72;;
52894;SDS011;38759;53.396;6.722;2023-05-10T07:05:01;5.38;;;3.60;;
52894;SDS011;38759;53.396;6.722;2023-05-10T07:07:27;7.65;;;5.90;;
52894;SDS011;38759;53.396;6.722;2023-05-10T07:09:53;5.45;;;4.82;;
52894;SDS011;38759;53.396;6.722;2023-05-10T07:12:19;8.35;;;4.72;;
52894;SDS011;38759;53.396;6.722;2023-05-10T07:14:45;6.93;;;5.28;;
52894;SDS011;38759;53.396;6.722;2023-05-10T07:17:11;6.30;;;5.70;;
52894;SDS011;38759;53.396;6.722;2023-05-10T07:19:37;5.60;;;5.10;;
52894;SDS011;38759;53.396;6.722;2023-05-10T07:22:02;6.78;;;5.95;;
52894;SDS011;38759;53.396;6.722;2023-05-10T07:24:28;6.32;;;5.30;;
52894;SDS011;38759;53.396;6.722;2023-05-10T07:26:54;5.75;;;5.15;;
52894;SDS011;38759;53.396;6.722;2023-05-10T07:29:20;7.00;;;5.88;;
52894;SDS011;38759;53.396;6.722;2023-05-10T07:31:46;5.63;;;5.13;;
52894;SDS011;38759;53.396;6.722;2023-05-10T07:34:11;6.05;;;4.80;;
52894;SDS011;38759;53.396;6.722;2023-05-10T07:36:37;10.57;;;6.70;;
52894;SDS011;38759;53.396;6.722;2023-05-10T07:39:03;8.43;;;6.30;;
52894;SDS011;38759;53.396;6.722;2023-05-10T07:41:29;8.05;;;7.13;;
52894;SDS011;38759;53.396;6.722;2023-05-10T07:43:54;5.88;;;5.20;;
52894;SDS011;38759;53.396;6.722;2023-05-10T07:46:20;8.68;;;5.78;;
52894;SDS011;38759;53.396;6.722;2023-05-10T07:48:46;6.90;;;6.00;;
52894;SDS011;38759;53.396;6.722;2023-05-10T07:51:11;7.70;;;6.82;;
52894;SDS011;38759;53.396;6.722;2023-05-10T07:53:37;10.75;;;8.77;;
52894;SDS011;38759;53.396;6.722;2023-05-10T07:56:25;9.70;;;7.60;;
52894;SDS011;38759;53.396;6.722;2023-05-10T07:58:50;8.57;;;6.35;;
52894;SDS011;38759;53.396;6.722;2023-05-10T08:01:16;10.10;;;7.60;;
52894;SDS011;38759;53.396;6.722;2023-05-10T08:03:42;9.55;;;6.70;;
52894;SDS011;38759;53.396;6.722;2023-05-10T08:06:08;6.45;;;4.82;;
52894;SDS011;38759;53.396;6.722;2023-05-10T08:08:33;5.90;;;4.80;;
52894;SDS011;38759;53.396;6.722;2023-05-10T08:10:59;4.53;;;3.92;;
52894;SDS011;38759;53.396;6.722;2023-05-10T08:13:24;4.10;;;3.28;;
52894;SDS011;38759;53.396;6.722;2023-05-10T08:15:50;3.08;;;2.75;;
52894;SDS011;38759;53.396;6.722;2023-05-10T08:18:18;4.22;;;3.80;;
52894;SDS011;38759;53.396;6.722;2023-05-10T08:20:44;5.05;;;2.22;;
52894;SDS011;38759;53.396;6.722;2023-05-10T08:23:14;4.25;;;2.40;;
52894;SDS011;38759;53.396;6.722;2023-05-10T08:25:39;2.00;;;1.90;;
52894;SDS011;38759;53.396;6.722;2023-05-10T08:28:05;2.92;;;2.65;;
52894;SDS011;38759;53.396;6.722;2023-05-10T08:30:31;3.88;;;3.38;;
52894;SDS011;38759;53.396;6.722;2023-05-10T08:32:57;3.78;;;3.10;;
52894;SDS011;38759;53.396;6.722;2023-05-10T08:35:22;4.68;;;3.53;;
52894;SDS011;38759;53.396;6.722;2023-05-10T08:37:50;5.95;;;4.18;;
52894;SDS011;38759;53.396;6.722;2023-05-10T08:40:16;6.55;;;4.90;;
52894;SDS011;38759;53.396;6.722;2023-05-10T08:42:47;7.10;;;4.05;;
52894;SDS011;38759;53.396;6.722;2023-05-10T08:47:48;4.25;;;3.47;;
52894;SDS011;38759;53.396;6.722;2023-05-10T08:50:14;2.58;;;2.38;;
52894;SDS011;38759;53.396;6.722;2023-05-10T08:52:41;2.75;;;2.08;;
52894;SDS011;38759;53.396;6.722;2023-05-10T08:55:07;2.30;;;2.10;;
52894;SDS011;38759;53.396;6.722;2023-05-10T08:57:33;2.70;;;2.08;;
52894;SDS011;38759;53.396;6.722;2023-05-10T09:00:00;2.65;;;2.30;;
52894;SDS011;38759;53.396;6.722;2023-05-10T09:02:26;2.67;;;2.20;;
52894;SDS011;38759;53.396;6.722;2023-05-10T09:04:52;3.20;;;2.55;;
52894;SDS011;38759;53.396;6.722;2023-05-10T09:07:18;3.85;;;2.58;;
52894;SDS011;38759;53.396;6.722;2023-05-10T09:09:45;2.60;;;2.40;;
52894;SDS011;38759;53.396;6.722;2023-05-10T09:12:11;2.60;;;2.40;;
52894;SDS011;38759;53.396;6.722;2023-05-10T09:14:38;2.75;;;2.40;;
52894;SDS011;38759;53.396;6.722;2023-05-10T09:17:04;3.22;;;2.67;;
52894;SDS011;38759;53.396;6.722;2023-05-10T09:19:30;4.45;;;2.50;;
52894;SDS011;38759;53.396;6.722;2023-05-10T09:21:56;2.33;;;2.13;;
52894;SDS011;38759;53.396;6.722;2023-05-10T09:24:25;5.68;;;2.00;;
52894;SDS011;38759;53.396;6.722;2023-05-10T09:26:52;2.78;;;2.45;;
52894;SDS011;38759;53.396;6.722;2023-05-10T09:29:18;3.47;;;2.72;;
52894;SDS011;38759;53.396;6.722;2023-05-10T09:31:47;4.18;;;2.78;;
52894;SDS011;38759;53.396;6.722;2023-05-10T09:34:20;4.05;;;2.90;;
52894;SDS011;38759;53.396;6.722;2023-05-10T09:36:57;5.43;;;2.88;;
52894;SDS011;38759;53.396;6.722;2023-05-10T09:39:35;2.88;;;2.20;;
52894;SDS011;38759;53.396;6.722;2023-05-10T09:42:20;4.03;;;2.83;;
52894;SDS011;38759;53.396;6.722;2023-05-10T09:44:46;3.50;;;2.28;;
52894;SDS011;38759;53.396;6.722;2023-05-10T09:47:16;3.05;;;2.65;;
52894;SDS011;38759;53.396;6.722;2023-05-10T09:49:44;2.88;;;2.15;;
52894;SDS011;38759;53.396;6.722;2023-05-10T09:52:14;5.72;;;2.00;;
52894;SDS011;38759;53.396;6.722;2023-05-10T09:54:42;4.40;;;2.85;;
52894;SDS011;38759;53.396;6.722;2023-05-10T09:57:20;5.85;;;3.05;;
52894;SDS011;38759;53.396;6.722;2023-05-10T09:59:47;4.88;;;3.70;;
52894;SDS011;38759;53.396;6.722;2023-05-10T10:02:13;3.00;;;2.70;;
52894;SDS011;38759;53.396;6.722;2023-05-10T10:04:44;4.93;;;3.20;;
52894;SDS011;38759;53.396;6.722;2023-05-10T10:07:13;5.40;;;3.78;;
52894;SDS011;38759;53.396;6.722;2023-05-10T10:09:39;6.63;;;3.42;;
52894;SDS011;38759;53.396;6.722;2023-05-10T10:12:05;6.95;;;4.00;;
52894;SDS011;38759;53.396;6.722;2023-05-10T10:14:31;3.25;;;2.80;;
52894;SDS011;38759;53.396;6.722;2023-05-10T10:16:57;5.63;;;3.83;;
52894;SDS011;38759;53.396;6.722;2023-05-10T10:19:26;7.10;;;4.20;;
52894;SDS011;38759;53.396;6.722;2023-05-10T10:21:51;3.83;;;2.90;;
52894;SDS011;38759;53.396;6.722;2023-05-10T10:24:17;4.88;;;2.70;;
52894;SDS011;38759;53.396;6.722;2023-05-10T10:26:43;5.03;;;2.72;;
52894;SDS011;38759;53.396;6.722;2023-05-10T10:29:19;5.63;;;3.67;;
52894;SDS011;38759;53.396;6.722;2023-05-10T10:34:45;3.28;;;2.30;;
52894;SDS011;38759;53.396;6.722;2023-05-10T10:37:12;3.58;;;2.60;;
52894;SDS011;38759;53.396;6.722;2023-05-10T10:39:37;2.22;;;1.83;;
52894;SDS011;38759;53.396;6.722;2023-05-10T10:42:03;3.38;;;2.30;;
52894;SDS011;38759;53.396;6.722;2023-05-10T10:49:37;2.42;;;1.75;;
52894;SDS011;38759;53.396;6.722;2023-05-10T10:54:52;2.88;;;2.25;;
52894;SDS011;38759;53.396;6.722;2023-05-10T10:57:22;3.78;;;2.28;;
52894;SDS011;38759;53.396;6.722;2023-05-10T10:59:48;2.95;;;2.35;;
52894;SDS011;38759;53.396;6.722;2023-05-10T11:07:56;5.03;;;2.80;;
52894;SDS011;38759;53.396;6.722;2023-05-10T11:10:23;3.17;;;2.63;;
52894;SDS011;38759;53.396;6.722;2023-05-10T11:15:32;4.40;;;2.92;;
52894;SDS011;38759;53.396;6.722;2023-05-10T11:17:59;4.93;;;3.45;;
52894;SDS011;38759;53.396;6.722;2023-05-10T11:20:41;4.90;;;3.15;;
52894;SDS011;38759;53.396;6.722;2023-05-10T11:23:13;4.38;;;2.53;;
52894;SDS011;38759;53.396;6.722;2023-05-10T11:25:44;2.25;;;1.80;;
52894;SDS011;38759;53.396;6.722;2023-05-10T11:28:10;3.08;;;2.30;;
52894;SDS011;38759;53.396;6.722;2023-05-10T11:30:40;4.35;;;1.77;;
52894;SDS011;38759;53.396;6.722;2023-05-10T11:33:08;6.20;;;3.70;;
52894;SDS011;38759;53.396;6.722;2023-05-10T11:35:38;7.07;;;4.00;;
52894;SDS011;38759;53.396;6.722;2023-05-10T11:38:05;6.78;;;4.55;;
52894;SDS011;38759;53.396;6.722;2023-05-10T11:40:35;9.77;;;4.88;;
52894;SDS011;38759;53.396;6.722;2023-05-10T11:43:02;8.35;;;5.82;;
52894;SDS011;38759;53.396;6.722;2023-05-10T11:45:31;11.40;;;6.35;;
52894;SDS011;38759;53.396;6.722;2023-05-10T11:47:58;6.82;;;4.47;;
52894;SDS011;38759;53.396;6.722;2023-05-10T11:50:24;7.15;;;4.10;;
52894;SDS011;38759;53.396;6.722;2023-05-10T11:52:57;9.90;;;4.88;;
52894;SDS011;38759;53.396;6.722;2023-05-10T11:55:23;7.32;;;4.50;;
52894;SDS011;38759;53.396;6.722;2023-05-10T11:57:53;8.63;;;6.90;;
52894;SDS011;38759;53.396;6.722;2023-05-10T12:00:20;7.70;;;6.70;;
52894;SDS011;38759;53.396;6.722;2023-05-10T12:02:46;8.45;;;6.05;;
52894;SDS011;38759;53.396;6.722;2023-05-10T12:05:12;7.53;;;5.05;;
52894;SDS011;38759;53.396;6.722;2023-05-10T12:07:38;8.43;;;4.90;;
52894;SDS011;38759;53.396;6.722;2023-05-10T12:10:08;11.38;;;5.35;;
52894;SDS011;38759;53.396;6.722;2023-05-10T12:12:39;12.73;;;5.00;;
52894;SDS011;38759;53.396;6.722;2023-05-10T12:15:06;14.35;;;9.13;;
52894;SDS011;38759;53.396;6.722;2023-05-10T12:17:46;10.35;;;5.78;;
52894;SDS011;38759;53.396;6.722;2023-05-10T12:20:12;15.68;;;10.07;;
52894;SDS011;38759;53.396;6.722;2023-05-10T12:22:50;9.23;;;5.40;;
52894;SDS011;38759;53.396;6.722;2023-05-10T12:25:17;9.60;;;6.40;;
52894;SDS011;38759;53.396;6.722;2023-05-10T12:27:47;11.90;;;7.20;;
52894;SDS011;38759;53.396;6.722;2023-05-10T12:30:18;14.38;;;7.25;;
52894;SDS011;38759;53.396;6.722;2023-05-10T12:32:46;13.43;;;7.50;;
52894;SDS011;38759;53.396;6.722;2023-05-10T12:35:11;16.17;;;10.88;;
52894;SDS011;38759;53.396;6.722;2023-05-10T12:37:37;13.55;;;10.02;;
52894;SDS011;38759;53.396;6.722;2023-05-10T12:40:07;11.68;;;6.75;;
52894;SDS011;38759;53.396;6.722;2023-05-10T12:42:34;12.15;;;10.05;;
52894;SDS011;38759;53.396;6.722;2023-05-10T12:45:01;11.15;;;8.30;;
52894;SDS011;38759;53.396;6.722;2023-05-10T12:47:27;11.35;;;7.13;;
52894;SDS011;38759;53.396;6.722;2023-05-10T12:49:53;12.90;;;7.03;;
52894;SDS011;38759;53.396;6.722;2023-05-10T12:52:19;13.25;;;9.52;;
52894;SDS011;38759;53.396;6.722;2023-05-10T12:54:45;11.50;;;9.15;;
52894;SDS011;38759;53.396;6.722;2023-05-10T12:57:11;11.45;;;6.63;;
52894;SDS011;38759;53.396;6.722;2023-05-10T12:59:38;9.60;;;8.45;;
52894;SDS011;38759;53.396;6.722;2023-05-10T13:02:04;10.10;;;7.85;;
52894;SDS011;38759;53.396;6.722;2023-05-10T13:04:30;9.15;;;8.07;;
52894;SDS011;38759;53.396;6.722;2023-05-10T13:06:55;10.13;;;7.93;;
52894;SDS011;38759;53.396;6.722;2023-05-10T13:09:24;9.13;;;5.60;;
52894;SDS011;38759;53.396;6.722;2023-05-10T13:11:50;8.93;;;7.88;;
52894;SDS011;38759;53.396;6.722;2023-05-10T13:14:18;9.15;;;8.15;;
52894;SDS011;38759;53.396;6.722;2023-05-10T13:16:45;9.73;;;8.15;;
52894;SDS011;38759;53.396;6.722;2023-05-10T13:19:12;11.95;;;9.50;;
52894;SDS011;38759;53.396;6.722;2023-05-10T13:21:38;12.82;;;7.47;;
52894;SDS011;38759;53.396;6.722;2023-05-10T13:24:06;12.05;;;9.68;;
52894;SDS011;38759;53.396;6.722;2023-05-10T13:26:32;13.80;;;7.30;;
52894;SDS011;38759;53.396;6.722;2023-05-10T13:28:58;12.25;;;6.82;;
52894;SDS011;38759;53.396;6.722;2023-05-10T13:31:23;12.98;;;10.70;;
52894;SDS011;38759;53.396;6.722;2023-05-10T13:33:49;12.45;;;11.05;;
52894;SDS011;38759;53.396;6.722;2023-05-10T13:36:15;10.32;;;7.50;;
52894;SDS011;38759;53.396;6.722;2023-05-10T13:38:41;11.30;;;7.25;;
52894;SDS011;38759;53.396;6.722;2023-05-10T13:41:06;12.00;;;7.40;;
52894;SDS011;38759;53.396;6.722;2023-05-10T13:43:32;9.55;;;6.07;;
52894;SDS011;38759;53.396;6.722;2023-05-10T13:45:58;10.60;;;8.77;;
52894;SDS011;38759;53.396;6.722;2023-05-10T13:48:23;8.80;;;7.90;;
52894;SDS011;38759;53.396;6.722;2023-05-10T13:50:49;8.93;;;7.15;;
52894;SDS011;38759;53.396;6.722;2023-05-10T13:53:15;8.63;;;7.60;;
52894;SDS011;38759;53.396;6.722;2023-05-10T13:55:41;9.35;;;7.60;;
52894;SDS011;38759;53.396;6.722;2023-05-10T13:58:06;9.25;;;6.32;;
52894;SDS011;38759;53.396;6.722;2023-05-10T14:00:32;10.95;;;8.90;;
52894;SDS011;38759;53.396;6.722;2023-05-10T14:02:58;10.93;;;7.50;;
52894;SDS011;38759;53.396;6.722;2023-05-10T14:05:23;11.98;;;7.53;;
52894;SDS011;38759;53.396;6.722;2023-05-10T14:07:49;12.23;;;7.20;;
52894;SDS011;38759;53.396;6.722;2023-05-10T14:10:15;9.35;;;7.40;;
52894;SDS011;38759;53.396;6.722;2023-05-10T14:12:41;11.30;;;7.35;;
52894;SDS011;38759;53.396;6.722;2023-05-10T14:15:07;11.20;;;10.02;;
52894;SDS011;38759;53.396;6.722;2023-05-10T14:17:35;14.07;;;12.50;;
52894;SDS011;38759;53.396;6.722;2023-05-10T14:20:01;10.90;;;9.48;;
52894;SDS011;38759;53.396;6.722;2023-05-10T14:22:27;14.10;;;11.35;;
52894;SDS011;38759;53.396;6.722;2023-05-10T14:24:52;14.13;;;10.90;;
52894;SDS011;38759;53.396;6.722;2023-05-10T14:27:18;15.45;;;12.10;;
52894;SDS011;38759;53.396;6.722;2023-05-10T14:29:44;14.88;;;11.68;;
52894;SDS011;38759;53.396;6.722;2023-05-10T14:32:10;13.30;;;8.40;;
52894;SDS011;38759;53.396;6.722;2023-05-10T14:34:35;15.15;;;8.70;;
52894;SDS011;38759;53.396;6.722;2023-05-10T14:37:01;18.42;;;12.95;;
52894;SDS011;38759;53.396;6.722;2023-05-10T14:39:27;15.13;;;12.93;;
52894;SDS011;38759;53.396;6.722;2023-05-10T14:41:55;16.55;;;13.43;;
52894;SDS011;38759;53.396;6.722;2023-05-10T14:44:21;12.95;;;11.63;;
52894;SDS011;38759;53.396;6.722;2023-05-10T14:46:46;10.38;;;9.30;;
52894;SDS011;38759;53.396;6.722;2023-05-10T14:49:13;10.93;;;8.95;;
52894;SDS011;38759;53.396;6.722;2023-05-10T14:51:39;11.50;;;9.52;;
52894;SDS011;38759;53.396;6.722;2023-05-10T14:54:04;11.20;;;9.00;;
52894;SDS011;38759;53.396;6.722;2023-05-10T14:56:30;10.13;;;7.40;;
52894;SDS011;38759;53.396;6.722;2023-05-10T14:58:56;8.68;;;5.93;;
52894;SDS011;38759;53.396;6.722;2023-05-10T15:01:22;10.75;;;6.57;;
52894;SDS011;38759;53.396;6.722;2023-05-10T15:03:48;10.35;;;8.93;;
52894;SDS011;38759;53.396;6.722;2023-05-10T15:06:14;12.18;;;8.82;;
52894;SDS011;38759;53.396;6.722;2023-05-10T15:08:41;8.73;;;7.82;;
52894;SDS011;38759;53.396;6.722;2023-05-10T15:11:06;8.60;;;6.80;;
52894;SDS011;38759;53.396;6.722;2023-05-10T15:13:32;9.70;;;6.55;;
52894;SDS011;38759;53.396;6.722;2023-05-10T15:15:57;8.35;;;6.45;;
52894;SDS011;38759;53.396;6.722;2023-05-10T15:18:23;7.72;;;6.97;;